• Join FlightAware (Why Join?)
  • Login
  • US Flag 
08:14AM EDT


 

Airport Tracker/Info


-or-


 

Live Flight TrackerFlight Track Log ✈ N38394 ✈ 10-Sep-2013 ✈ KUNV - KLAF

Flight Track Log - Related Links

Times and Time Zones

All times are in EDT time to prevent confusion due to time zone crossing. See the N38394 flight status page for this flight to view local times or setup timezone preferences in your user account.

Time Position Orientation Groundspeed Altitude Reporting Facility
EDT Latitude Longitude Course Direction KTS MPH feet Rate Location/Type
07:10PM 40.8425 -77.9008 268° West 114 131 2,400  Level New York Center
07:11PM 40.8447 -77.9311 276° West 100 115 3,000 1,800 Climbing New York Center
07:12PM 40.8453 -77.9586 272° West 90 104 6,000 420 Climbing New York Center
07:13PM 40.8433 -77.9886 265° West 83 96 3,900  Descending New York Center
07:14PM 40.8469 -78.0928 270° West  Level Estimated
07:14PM 40.8503 -78.0142 290° West 83 96 6,000  Level New York Center
07:15PM 40.8456 -78.1335 268° West  Level FlightAware Approximate
07:15PM 40.8569 -78.0422 287° West 83 96 4,900  Level New York Center
07:16PM 40.8617 -78.0675 284° West 83 96 5,400 480 Climbing New York Center
07:17PM 40.8703 -78.0958 292° West 83 96 5,900 300 Climbing New York Center
07:18PM 40.8767 -78.1267 285° West 83 96 6,100  Climbing New York Center
07:19PM 40.8828 -78.1631 283° West 95 109 6,000 -60 Descending New York Center
07:20PM 40.8847 -78.1961 274° West 100 115 6,000  Level New York Center
07:21PM 40.8867 -78.2347 274° West 106 122 6,100  Climbing New York Center
07:22PM 40.8883 -78.2736 273° West 106 122 6,100  Level New York Center
07:22PM 40.8844 -78.3008 259° West 105 121 6,100 -60 Level Cleveland Center
07:23PM 40.8833 -78.3419 268° West 105 121 6,000 -60 Descending Cleveland Center
07:24PM 40.8819 -78.3806 267° West 105 121 6,000  Level Cleveland Center
07:25PM 40.8783 -78.4192 263° West 105 121 6,000  Level Cleveland Center
07:26PM 40.8750 -78.4550 263° West 105 121 6,000  Level Cleveland Center
07:27PM 40.8694 -78.4936 259° West 105 121 6,000  Level Cleveland Center
07:28PM 40.8681 -78.5347 267° West 105 121 6,000  Level Cleveland Center
07:29PM 40.8667 -78.5733 267° West 105 121 6,000  Level Cleveland Center
07:30PM 40.8653 -78.6117 267° West 105 121 6,000  Level Cleveland Center
07:31PM 40.8658 -78.6475 271° West 105 121 6,000  Level Cleveland Center
07:32PM 40.8622 -78.6858 263° West 105 121 6,000  Level Cleveland Center
07:33PM 40.8567 -78.7244 259° West 105 121 6,000  Level Cleveland Center
07:34PM 40.8531 -78.7631 263° West 105 121 6,000  Level Cleveland Center
07:35PM 40.8517 -78.8017 267° West 105 121 6,100  Climbing Cleveland Center
07:36PM 40.8522 -78.8372 271° West 105 121 6,000 -60 Descending Cleveland Center
07:37PM 40.8569 -78.8783 279° West 105 121 6,000  Level Cleveland Center
07:38PM 40.8597 -78.9167 275° West 105 121 6,000  Level Cleveland Center
07:39PM 40.8644 -78.9578 279° West 105 121 6,000  Level Cleveland Center
07:40PM 40.8672 -78.9961 275° West 105 121 6,000  Level Cleveland Center
07:41PM 40.8656 -79.0344 267° West 105 121 6,000  Level Cleveland Center
07:42PM 40.8597 -79.0706 258° West 105 121 6,000  Level Cleveland Center
07:43PM 40.8561 -79.1089 263° West 105 121 6,100  Climbing Cleveland Center
07:44PM 40.8525 -79.1447 262° West 105 121 6,100 -60 Level Cleveland Center
07:45PM 40.8508 -79.1831 267° West 105 121 6,000 -60 Descending Cleveland Center
07:46PM 40.8533 -79.2242 275° West 105 121 6,000  Level Cleveland Center
07:47PM 40.8558 -79.2628 275° West 105 121 6,000  Level Cleveland Center
07:48PM 40.8564 -79.3011 271° West 105 121 6,000  Level Cleveland Center
07:49PM 40.8589 -79.3394 275° West 105 121 6,000  Level Cleveland Center
07:50PM 40.8572 -79.3753 266° West 105 121 6,000  Level Cleveland Center
07:51PM 40.8575 -79.4136 271° West 105 121 6,000  Level Cleveland Center
07:52PM 40.8558 -79.4522 267° West 105 121 6,000  Level Cleveland Center
07:53PM 40.8542 -79.4906 267° West 105 121 6,000  Level Cleveland Center
07:54PM 40.8544 -79.5261 271° West 105 121 6,000  Level Cleveland Center
07:55PM 40.8589 -79.5647 279° West 105 121 6,000  Level Cleveland Center
07:56PM 40.8592 -79.6031 271° West 105 121 6,000  Level Cleveland Center
07:57PM 40.8575 -79.6414 267° West 105 121 6,000  Level Cleveland Center
07:58PM 40.8517 -79.6800 259° West 105 121 6,000  Level Cleveland Center
07:59PM 40.8478 -79.7158 262° West 105 121 6,000  Level Cleveland Center
08:01PM 40.8331 -79.7592 268° West  Level FlightAware Approximate
08:08PM 40.8251 -80.0168 268° West  Level FlightAware Approximate
08:09PM 40.8239 -80.0536 268° West  Level FlightAware Approximate
08:10PM 40.8228 -80.0904 268° West  Level FlightAware Approximate
08:11PM 40.8215 -80.1272 268° West  Level FlightAware Approximate
08:12PM 40.8203 -80.1639 268° West  Level FlightAware Approximate
08:13PM 40.8191 -80.2007 267° West  Level FlightAware Approximate
08:14PM 40.8179 -80.2375 267° West  Level FlightAware Approximate
08:15PM 40.8166 -80.2743 267° West  Level FlightAware Approximate
08:16PM 40.8153 -80.3111 267° West  Level FlightAware Approximate
08:17PM 40.8141 -80.3478 267° West  Level FlightAware Approximate
08:18PM 40.8128 -80.3846 267° West  Level FlightAware Approximate
08:19PM 40.8115 -80.4214 267° West  Level FlightAware Approximate
08:20PM 40.8102 -80.4582 267° West  Level FlightAware Approximate
08:21PM 40.8088 -80.4949 267° West  Level FlightAware Approximate
08:22PM 40.8075 -80.5317 267° West  Level FlightAware Approximate
08:23PM 40.8062 -80.5685 267° West  Level FlightAware Approximate
08:24PM 40.8048 -80.6053 267° West  Level FlightAware Approximate
08:25PM 40.8034 -80.6420 267° West  Level FlightAware Approximate
08:26PM 40.8021 -80.6788 267° West  Level FlightAware Approximate
08:27PM 40.8007 -80.7156 267° West  Level FlightAware Approximate
08:28PM 40.7994 -80.7523 268° West  Level FlightAware Approximate
08:29PM 40.7982 -80.7891 268° West  Level FlightAware Approximate
08:30PM 40.7970 -80.8259 268° West  Level FlightAware Approximate
08:31PM 40.7958 -80.8626 267° West  Level FlightAware Approximate
08:32PM 40.7945 -80.8994 267° West  Level FlightAware Approximate
08:33PM 40.7933 -80.9362 267° West  Level FlightAware Approximate
08:34PM 40.7920 -80.9730 267° West  Level FlightAware Approximate
08:35PM 40.7907 -81.0097 267° West  Level FlightAware Approximate
08:36PM 40.7895 -81.0465 267° West  Level FlightAware Approximate
08:37PM 40.7882 -81.0833 267° West  Level FlightAware Approximate
08:38PM 40.7869 -81.1200 267° West  Level FlightAware Approximate
08:39PM 40.7856 -81.1568 267° West  Level FlightAware Approximate
08:40PM 40.7842 -81.1935 267° West  Level FlightAware Approximate
08:41PM 40.7829 -81.2303 267° West  Level FlightAware Approximate
08:42PM 40.7815 -81.2671 267° West  Level FlightAware Approximate
08:43PM 40.7802 -81.3038 267° West  Level FlightAware Approximate
08:44PM 40.7788 -81.3406 267° West  Level FlightAware Approximate
08:45PM 40.7774 -81.3773 267° West  Level FlightAware Approximate
08:46PM 40.7760 -81.4140 267° West  Level FlightAware Approximate
08:47PM 40.7746 -81.4508 267° West  Level FlightAware Approximate
08:48PM 40.7732 -81.4875 267° West  Level FlightAware Approximate
08:49PM 40.7718 -81.5243 267° West  Level FlightAware Approximate
08:50PM 40.7703 -81.5610 267° West  Level FlightAware Approximate
08:51PM 40.7689 -81.5978 267° West  Level FlightAware Approximate
08:52PM 40.7674 -81.6345 267° West  Level FlightAware Approximate
08:53PM 40.7659 -81.6713 267° West  Level FlightAware Approximate
08:54PM 40.7644 -81.7080 267° West  Level FlightAware Approximate
08:55PM 40.7629 -81.7447 267° West  Level FlightAware Approximate
08:56PM 40.7614 -81.7815 267° West  Level FlightAware Approximate
08:57PM 40.7599 -81.8182 267° West  Level FlightAware Approximate
08:58PM 40.7584 -81.8549 267° West  Level FlightAware Approximate
08:59PM 40.7568 -81.8917 267° West  Level FlightAware Approximate
09:00PM 40.7552 -81.9284 267° West  Level FlightAware Approximate
09:01PM 40.7537 -81.9651 267° West  Level FlightAware Approximate
09:02PM 40.7521 -82.0018 267° West  Level FlightAware Approximate
09:03PM 40.7505 -82.0386 267° West  Level FlightAware Approximate
09:04PM 40.7487 -82.0753 266° West  Level FlightAware Approximate
09:05PM 40.7468 -82.1120 266° West  Level FlightAware Approximate
09:06PM 40.7449 -82.1487 266° West  Level FlightAware Approximate
09:07PM 40.7429 -82.1853 266° West  Level FlightAware Approximate
09:08PM 40.7410 -82.2220 266° West  Level FlightAware Approximate
09:09PM 40.7390 -82.2587 266° West  Level FlightAware Approximate
09:10PM 40.7371 -82.2954 266° West  Level FlightAware Approximate
09:11PM 40.7351 -82.3321 266° West  Level FlightAware Approximate
09:12PM 40.7331 -82.3688 266° West  Level FlightAware Approximate
09:13PM 40.7311 -82.4054 266° West  Level FlightAware Approximate
09:14PM 40.7291 -82.4421 266° West  Level FlightAware Approximate
09:15PM 40.7271 -82.4788 266° West  Level FlightAware Approximate
09:16PM 40.7250 -82.5154 266° West  Level FlightAware Approximate
09:17PM 40.7230 -82.5521 266° West  Level FlightAware Approximate
09:18PM 40.7209 -82.5888 266° West  Level FlightAware Approximate
09:19PM 40.7188 -82.6255 266° West  Level FlightAware Approximate
09:20PM 40.7168 -82.6621 266° West  Level FlightAware Approximate
09:21PM 40.7147 -82.6988 266° West  Level FlightAware Approximate
09:22PM 40.7126 -82.7354 266° West  Level FlightAware Approximate
09:23PM 40.7104 -82.7721 266° West  Level FlightAware Approximate
09:24PM 40.7083 -82.8087 266° West  Level FlightAware Approximate
09:24PM 40.7331 -82.8467 266° West 102 117 6,000  Level Indianapolis Center
09:25PM 40.7062 -82.8454 266° West  Level FlightAware Approximate
09:25PM 40.7300 -82.8861 264° West 105 121 6,000  Level Indianapolis Center
09:26PM 40.7040 -82.8820 266° West  Level FlightAware Approximate
09:26PM 40.7278 -82.9231 265° West 102 117 6,100  Level Indianapolis Center
09:27PM 40.7019 -82.9187 266° West  Level FlightAware Approximate
09:27PM 40.7267 -82.9642 268° West 107 123 6,000  Level Indianapolis Center
09:28PM 40.6997 -82.9553 266° West  Level FlightAware Approximate
09:28PM 40.7256 -82.9997 268° West 101 116 6,000  Level Indianapolis Center
09:29PM 40.6979 -82.9920 266° West  Level FlightAware Approximate
09:29PM 40.7258 -83.0392 271° West 103 119 5,900  Level Indianapolis Center
09:30PM 40.6961 -83.0281 266° West  Level FlightAware Approximate
09:30PM 40.7256 -83.0736 269° West 97 112 6,000  Level Indianapolis Center
09:32PM 40.7239 -83.1117 267° West 100 115 6,000  Level Indianapolis Center
09:33PM 40.7172 -83.1492 257° West 104 120 6,000 -60 Level Indianapolis Center
09:34PM 40.7069 -83.1814 247° West 102 117 5,900  Descending Indianapolis Center
09:35PM 40.7006 -83.2256 259° West 101 116 6,000  Climbing Indianapolis Center
09:36PM 40.7008 -83.2639 271° West 103 119 6,000  Level Indianapolis Center
09:37PM 40.7022 -83.3011 273° West 103 119 6,000  Level Indianapolis Center
09:38PM 40.7031 -83.3383 272° West 102 117 6,000  Level Indianapolis Center
09:39PM 40.7011 -83.3756 266° West 103 119 6,000  Level Indianapolis Center
09:40PM 40.6983 -83.4094 264° West 96 110 6,000  Level Indianapolis Center
09:41PM 40.6947 -83.4467 263° West 100 115 6,000  Level Indianapolis Center
09:42PM 40.6914 -83.4831 263° West 100 115 6,000  Level Indianapolis Center
09:43PM 40.6886 -83.5206 264° West 103 119 6,000  Level Indianapolis Center
09:44PM 40.6875 -83.5572 268° West 102 117 6,000  Level Indianapolis Center
09:45PM 40.6844 -83.6019 265° West 103 119 6,000  Level Indianapolis Center
09:46PM 40.6808 -83.6403 263° West 105 121 6,000  Level Indianapolis Center
09:47PM 40.6778 -83.6783 264° West 105 121 6,000  Level Indianapolis Center
09:48PM 40.6744 -83.7161 263° West 105 121 6,000  Level Indianapolis Center
09:49PM 40.6675 -83.7544 257° West 107 123 6,000  Level Indianapolis Center
09:50PM 40.6617 -83.7911 258° West 105 121 6,000  Level Indianapolis Center
09:51PM 40.6567 -83.8294 260° West 106 122 6,100  Climbing Indianapolis Center
09:52PM 40.6550 -83.8692 267° West 108 124 6,100 -60 Level Indianapolis Center
09:53PM 40.6547 -83.9092 269° West 110 127 6,000 -60 Descending Indianapolis Center
09:54PM 40.6508 -83.9553 264° West 108 124 6,000  Level Indianapolis Center
09:55PM 40.6486 -83.9939 266° West 106 122 6,000  Level Indianapolis Center
09:56PM 40.6431 -84.0319 259° West 107 123 6,000  Level Indianapolis Center
09:57PM 40.6372 -84.0686 258° West 105 121 6,000  Level Indianapolis Center
09:58PM 40.6325 -84.1056 260° West 104 120 6,000  Level Indianapolis Center
09:59PM 40.6311 -84.1442 267° West 105 121 6,100  Climbing Indianapolis Center
10:00PM 40.6308 -84.1833 269° West 106 122 6,100  Level Indianapolis Center
10:01PM 40.6311 -84.2228 271° West 108 124 6,100  Level Indianapolis Center
10:02PM 40.6325 -84.2603 273° West 105 121 6,100  Level Indianapolis Center
10:03PM 40.6322 -84.2828 269° West 104 120 6,100 -120 Level Indianapolis Center
10:04PM 40.6278 -84.3217 261° West 105 121 6,000 -60 Descending Indianapolis Center
10:05PM 40.6175 -84.3667 253° West 105 121 6,000  Level Indianapolis Center
10:06PM 40.6131 -84.4050 261° West 106 122 6,100  Climbing Indianapolis Center
10:07PM 40.6108 -84.4367 265° West 107 123 6,100 -60 Level Indianapolis Center
10:08PM 40.6072 -84.4828 264° West 107 123 6,000 -60 Descending Indianapolis Center
10:09PM 40.6019 -84.5214 260° West 106 122 6,000  Level Indianapolis Center
10:10PM 40.5967 -84.5633 261° West 106 122 6,000  Level Indianapolis Center
10:11PM 40.5881 -84.5972 252° West 106 122 6,000  Level Indianapolis Center
10:12PM 40.5803 -84.6347 255° West 106 122 6,000  Level Indianapolis Center
10:13PM 40.5767 -84.6750 263° West 110 127 6,000  Level Indianapolis Center
10:14PM 40.5775 -84.7147 272° West 108 124 6,000  Level Indianapolis Center
10:15PM 40.5825 -84.7544 279° West 110 127 6,100  Climbing Indianapolis Center
10:16PM 40.5886 -84.7972 281° West 110 127 6,000 -60 Descending Indianapolis Center
10:17PM 40.5914 -84.8389 275° West 112 129 6,000  Level Indianapolis Center
10:18PM 40.5875 -84.8783 263° West 113 130 6,100  Climbing Indianapolis Center
10:19PM 40.5772 -84.9194 252° West 110 127 6,100 -60 Level Indianapolis Center
10:21PM 40.5622 -84.9969 256° West 110 127 6,000 -60 Descending Chicago Center
10:22PM 40.5597 -85.0394 266° West 113 130 6,000  Level Chicago Center
10:23PM 40.5553 -85.0772 261° West 109 125 6,100  Climbing Chicago Center
10:24PM 40.5522 -85.1156 264° West 108 124 6,100  Level Chicago Center
10:25PM 40.5636 -85.1633 287° West 110 127 6,100 -60 Level Chicago Center
10:26PM 40.5672 -85.2028 277° West 110 127 6,000  Descending Chicago Center
10:27PM 40.5711 -85.2428 277° West 110 127 6,100  Climbing Chicago Center
10:28PM 40.5744 -85.2831 276° West 111 128 6,100  Level Chicago Center
10:28PM 40.5758 -85.2889 287° West 111 128 6,100  Level Chicago Center
10:28PM 40.5756 -85.2914 262° West 111 128 6,100 -120 Level Chicago Center
10:29PM 40.5767 -85.3353 272° West 111 128 6,000 -60 Descending Chicago Center
10:30PM 40.5675 -85.3622 246° West 113 130 6,000 60 Level Chicago Center
10:30PM 40.5633 -85.3703 236° Southwest 110 127 6,100  Climbing Chicago Center
10:31PM 40.5553 -85.3981 249° West 110 127 6,000 -120 Descending Chicago Center
10:31PM 40.5519 -85.4081 246° West 109 125 6,000 60 Level Chicago Center
10:32PM 40.5478 -85.4372 259° West 110 127 6,100  Climbing Chicago Center
10:33PM 40.5442 -85.4769 263° West 110 127 6,000 -120 Descending Chicago Center
10:33PM 40.5414 -85.4897 254° West 113 130 6,000 60 Level Chicago Center
10:34PM 40.5339 -85.5225 253° West 109 125 6,100  Climbing Chicago Center
10:35PM 40.5247 -85.5581 251° West 107 123 6,000 -120 Descending Chicago Center
10:35PM 40.5247 -85.5656 270° West 108 124 6,000  Level Chicago Center
10:36PM 40.5297 -85.5944 283° West 109 125 6,000  Level Chicago Center
10:36PM 40.5322 -85.6042 289° West 112 129 6,000  Level Chicago Center
10:37PM 40.5400 -85.6386 287° West 111 128 6,000  Level Chicago Center
10:38PM 40.5414 -85.6428 294° West 111 128 6,000  Level Chicago Center
10:38PM 40.5419 -85.6775 271° West 111 128 6,000  Level Chicago Center
10:39PM 40.5425 -85.6839 277° West 108 124 6,000  Level Chicago Center
10:40PM 40.5350 -85.7217 255° West 109 125 6,000  Level Chicago Center
10:41PM 40.5272 -85.7547 253° West 110 127 6,000  Level Chicago Center
10:41PM 40.5233 -85.7650 244° Southwest 108 124 6,000 60 Level Chicago Center
10:42PM 40.5122 -85.7878 237° Southwest 108 124 6,100 60 Climbing Chicago Center
10:42PM 40.5100 -85.7972 253° West 108 124 6,100 -120 Level Chicago Center
10:43PM 40.5056 -85.8269 259° West 108 124 6,000  Descending Chicago Center
10:43PM 40.5047 -85.8378 264° West 107 123 6,100  Climbing Chicago Center
10:44PM 40.5056 -85.8789 272° West 108 124 6,000 -60 Descending Chicago Center
10:45PM 40.5117 -85.9128 283° West 109 125 6,000  Level Chicago Center
10:45PM 40.5128 -85.9175 287° West 110 127 6,000  Level Chicago Center
10:46PM 40.5156 -85.9525 276° West 110 127 6,000  Level Chicago Center
10:46PM 40.5136 -85.9586 247° West 109 125 6,000  Level Chicago Center
10:47PM 40.5067 -85.9908 254° West 111 128 6,000 -120 Level Chicago Center
10:47PM 40.5042 -85.9936 220° Southwest 108 124 5,900 -1,200 Descending Chicago Center
10:48PM 40.4972 -86.0342 257° West 122 140 4,800 -1,380 Descending Chicago Center
10:48PM 40.4942 -86.0422 243° Southwest 135 155 4,500 -1,500 Descending Chicago Center
10:49PM 40.4867 -86.0856 257° West 129 148 3,300 -780 Descending Chicago Center
10:50PM 40.4811 -86.1264 260° West 109 125 3,000 -120 Descending Chicago Center
10:51PM 40.4781 -86.1617 264° West 99 114 3,100  Climbing Chicago Center
10:52PM 40.4725 -86.2050 260° West 110 127 3,000 -120 Descending Chicago Center
10:52PM 40.4739 -86.1958 79° East 109 125 3,000  Level Chicago Center
10:53PM 40.4650 -86.2403 255° West 110 127 3,000 60 Level Chicago Center
10:53PM 40.4650 -86.2414 270° West 108 124 3,100 60 Climbing Chicago Center
10:54PM 40.4556 -86.2778 251° West 104 120 3,100  Level Chicago Center
10:54PM 40.4550 -86.2775 159° South 108 124 3,100  Level Chicago Center
10:55PM 40.4481 -86.3103 254° West 105 121 3,100  Level Chicago Center
10:55PM 40.4475 -86.3142 259° West 107 123 3,100  Level Chicago Center
10:56PM 40.4406 -86.3481 255° West 104 120 3,100  Level Chicago Center
10:56PM 40.4417 -86.3508 298° West 105 121 3,100  Level Chicago Center
10:57PM 40.4372 -86.3861 261° West 107 123 3,100  Level Chicago Center
10:57PM 40.4375 -86.3883 279° West 104 120 3,100  Level Chicago Center
10:58PM 40.4297 -86.4239 254° West 103 119 3,100 -120 Level Chicago Center
10:58PM 40.4303 -86.4242 339° North 104 120 3,000 -120 Descending Chicago Center
10:59PM 40.4242 -86.4592 257° West 105 121 3,000 60 Level Chicago Center
10:59PM 40.4244 -86.4619 277° West 104 120 3,100 60 Climbing Chicago Center
11:00PM 40.4144 -86.4967 249° West 102 117 3,100 -120 Level Chicago Center
11:00PM 40.4161 -86.4975 339° North 104 120 3,000 60 Descending Chicago Center
11:01PM 40.4100 -86.5331 257° West 103 119 3,200  Climbing Chicago Center
11:02PM 40.4017 -86.5697 253° West 104 120 3,100 -120 Descending Chicago Center
11:02PM 40.4025 -86.5658 74° East 97 112 3,100  Level Chicago Center
11:03PM 40.3939 -86.6072 255° West 106 122 3,100  Level Chicago Center
11:03PM 40.3942 -86.6108 276° West 103 119 3,100  Level Chicago Center
11:04PM 40.3906 -86.6425 261° West 101 116 3,100  Level Chicago Center
11:04PM 40.3906 -86.6483 270° West 104 120 3,100  Level Chicago Center
11:05PM 40.3831 -86.6778 252° West 100 115 3,100  Level Chicago Center
11:05PM 40.3828 -86.6828 266° West 101 116 3,100 -240 Level Chicago Center
11:06PM 40.3858 -86.7161 277° West 112 129 2,900 -240 Descending Chicago Center
11:06PM 40.3867 -86.7206 284° West 103 119 2,900 -240 Level Chicago Center
11:07PM 40.3906 -86.7544 279° West 108 124 2,700 -240 Descending Chicago Center
11:07PM 40.3922 -86.7639 283° West 108 124 2,700 -300 Level Chicago Center
11:08PM 40.3956 -86.7931 279° West 106 122 2,400 -300 Descending Chicago Center
11:08PM 40.3978 -86.7942 339° North 108 124 2,400  Level Chicago Center
11:09PM 40.3981 -86.8314 271° West 100 115 2,400  Level Chicago Center
11:09PM 40.4011 -86.8392 297° West 107 123 2,400  Level Chicago Center
11:10PM 40.4053 -86.8647 282° West 103 119 2,400 -600 Level Chicago Center
11:11PM 40.4078 -86.9058 275° West 108 124 1,400 -1,020 Descending Chicago Center